This is the latest recevied weather packets stored in our database for station/object KG6QHD-13. If no packets are shown the sender has not sent any weather packets the latest 10 day(s).
| Time | Temp. | Humidity | Pressure | Rain* | Wind** | Luminosity | Snow |
|---|---|---|---|---|---|---|---|
| 1777920048 | 17.22° C | 20% | 1011.8 hPa | 0 mm | - | 1143 W/m² | - |
| 1777919749 | 17.22° C | 19% | 1012 hPa | 0 mm | - | 271 W/m² | - |
| 1777919148 | 16.67° C | 21% | 1012.4 hPa | 0 mm | - | 334 W/m² | - |
| 1777918848 | 17.22° C | 18% | 1012.5 hPa | 0 mm | - | 283 W/m² | - |
| 1777917649 | 18.33° C | 19% | 1012.4 hPa | 0 mm | - | 1055 W/m² | - |
| 1777916753 | 16.67° C | 20% | 1013 hPa | 0 mm | - | 388 W/m² | - |
| 1777915546 | 17.78° C | 21% | 1013 hPa | 0 mm | - | 1151 W/m² | - |
| 1777915247 | 17.22° C | 23% | 1013.2 hPa | 0 mm | - | 812 W/m² | - |
| 1777914957 | 17.22° C | 23% | 1013.3 hPa | 0 mm | - | 823 W/m² | - |
| 1777914347 | 16.67° C | 23% | 1013.3 hPa | 0 mm | - | 893 W/m² | - |
| 1777914052 | 16.67° C | 25% | 1013.3 hPa | 0 mm | - | 809 W/m² | - |
| 1777912548 | 15° C | 30% | 1013.6 hPa | 0 mm | - | 580 W/m² | - |
| 1777908046 | 13.89° C | 33% | 1014.2 hPa | 0 mm | - | 469 W/m² | - |
| 1777907445 | 13.33° C | 33% | 1014.3 hPa | 0 mm | - | 455 W/m² | - |
| 1777904748 | 12.22° C | 34% | 1014.5 hPa | 0 mm | - | 394 W/m² | - |
| 1777903545 | 11.67° C | 34% | 1014.2 hPa | 0 mm | - | 169 W/m² | - |
| 1777902950 | 11.67° C | 34% | 1014.2 hPa | 0 mm | - | 149 W/m² | - |
| 1777900562 | 11.11° C | 33% | 1014.1 hPa | 0 mm | - | 116 W/m² | - |
| 1777899050 | 10° C | 34% | 1014.1 hPa | 0 mm | - | 90 W/m² | - |
| 1777897850 | 8.89° C | 36% | 1014.2 hPa | 0 mm | - | 35 W/m² | - |
| 1777896645 | 8.33° C | 37% | 1014.2 hPa | 0 mm | - | 18 W/m² | - |
| 1777895748 | 8.89° C | 36% | 1014 hPa | 0 mm | - | 0 W/m² | - |
| 1777895151 | 8.89° C | 35% | 1013.9 hPa | 0 mm | - | 0 W/m² | - |
| 1777894258 | 8.89° C | 34% | 1013.8 hPa | 0 mm | - | 0 W/m² | - |
| 1777893045 | 8.89° C | 34% | 1014.1 hPa | 0 mm | - | 0 W/m² | - |
* Rain latest hour (hover to see other rain measurements)
** Current wind speed in m/s (hover to see current wind gust speed)